createdAt,value
2023-03-04T00:00:07.880Z,84.70
2023-03-04T00:02:37.990Z,90.90
2023-03-04T00:05:06.854Z,94.35
2023-03-04T00:07:34.716Z,89.47
2023-03-04T00:10:02.635Z,85.38
2023-03-04T00:12:31.970Z,87.43
2023-03-04T00:14:59.869Z,84.15
2023-03-04T00:17:29.979Z,81.43
2023-03-04T00:19:57.913Z,86.25
2023-03-04T00:22:25.891Z,91.53
2023-03-04T00:24:53.752Z,82.35
2023-03-04T00:27:21.613Z,86.07
2023-03-04T00:29:50.878Z,82.95
2023-03-04T00:32:19.252Z,83.20
2023-03-04T00:34:47.166Z,78.63
2023-03-04T00:37:15.284Z,80.68
2023-03-04T00:39:43.145Z,81.05
2023-03-04T00:42:10.989Z,78.30
2023-03-04T00:44:39.976Z,77.68
2023-03-04T00:47:09.258Z,72.40
2023-03-04T00:49:37.908Z,84.68
2023-03-04T00:52:05.812Z,84.45
2023-03-04T00:54:33.750Z,73.68
2023-03-04T00:57:01.634Z,73.78
2023-03-04T00:59:29.535Z,76.03
2023-03-04T01:01:57.430Z,75.43
2023-03-04T01:04:26.765Z,86.57
2023-03-04T01:06:54.997Z,77.40
2023-03-04T01:09:23.006Z,79.10
2023-03-04T01:11:50.913Z,75.95
2023-03-04T01:14:18.792Z,77.38
2023-03-04T01:16:46.922Z,78.07
2023-03-04T01:19:14.858Z,77.22
2023-03-04T01:21:44.093Z,74.32
2023-03-04T01:24:11.981Z,75.00
2023-03-04T01:26:41.809Z,77.25
2023-03-04T01:29:09.815Z,73.93
2023-03-04T01:31:37.817Z,80.18
2023-03-04T01:34:05.697Z,82.28
2023-03-04T01:36:33.607Z,70.35
2023-03-04T01:39:02.837Z,76.35
2023-03-04T01:41:30.731Z,76.97
2023-03-04T01:44:02.256Z,72.93
2023-03-04T01:46:31.354Z,77.10
2023-03-04T01:49:00.069Z,75.82
2023-03-04T01:51:28.097Z,79.40
2023-03-04T01:53:56.695Z,73.43
2023-03-04T01:56:30.628Z,72.35
2023-03-04T01:59:10.081Z,70.30
2023-03-04T02:01:39.034Z,71.85
2023-03-04T02:04:08.689Z,72.18
2023-03-04T02:06:37.158Z,74.70
2023-03-04T02:09:05.524Z,72.65
2023-03-04T02:11:36.561Z,72.30
2023-03-04T02:14:04.778Z,72.03
2023-03-04T02:16:33.571Z,62.72
2023-03-04T02:19:01.902Z,66.35
2023-03-04T02:21:31.647Z,65.45
2023-03-04T02:24:09.152Z,66.90
2023-03-04T02:26:41.266Z,69.47
2023-03-04T02:29:11.448Z,73.13
2023-03-04T02:31:41.620Z,71.97
2023-03-04T02:34:14.417Z,66.40
2023-03-04T02:36:43.280Z,64.53
2023-03-04T02:39:14.699Z,70.47
2023-03-04T02:41:44.659Z,65.28
2023-03-04T02:44:18.970Z,67.13
2023-03-04T02:46:48.228Z,66.28
2023-03-04T02:49:16.513Z,63.67
2023-03-04T02:51:44.814Z,70.03
2023-03-04T02:54:16.944Z,66.30
2023-03-04T02:56:50.881Z,47.70
2023-03-04T02:59:20.136Z,61.47
2023-03-04T03:01:48.157Z,66.85
2023-03-04T03:04:16.269Z,68.88
2023-03-04T03:06:45.699Z,67.65
2023-03-04T03:09:13.972Z,63.53
2023-03-04T03:11:42.023Z,64.25
2023-03-04T03:14:11.886Z,64.38
2023-03-04T03:16:40.023Z,63.63
2023-03-04T03:19:08.019Z,65.25
2023-03-04T03:21:37.792Z,60.70
2023-03-04T03:24:05.766Z,59.42
2023-03-04T03:26:33.731Z,63.38
2023-03-04T03:29:01.616Z,64.65
2023-03-04T03:31:31.406Z,60.75
2023-03-04T03:33:59.388Z,68.45
2023-03-04T03:36:29.024Z,64.38
2023-03-04T03:38:56.942Z,65.55
2023-03-04T03:41:24.854Z,62.00
2023-03-04T03:43:52.679Z,63.63
2023-03-04T03:46:20.537Z,63.95
2023-03-04T03:48:49.771Z,65.63
2023-03-04T03:51:17.650Z,61.10
2023-03-04T03:53:45.644Z,61.83
2023-03-04T03:56:13.516Z,61.15
2023-03-04T03:58:41.351Z,59.30
2023-03-04T04:01:09.344Z,57.42
2023-03-04T04:03:37.345Z,63.45
2023-03-04T04:06:07.202Z,61.17
2023-03-04T04:08:35.276Z,59.50
2023-03-04T04:11:03.282Z,60.50
2023-03-04T04:13:31.166Z,61.42
2023-03-04T04:15:59.506Z,58.15
2023-03-04T04:18:27.812Z,62.17
2023-03-04T04:20:56.053Z,63.28
2023-03-04T04:23:25.480Z,62.05
2023-03-04T04:25:55.871Z,66.63
2023-03-04T04:28:23.746Z,61.28
2023-03-04T04:30:51.862Z,61.47
2023-03-04T04:33:19.858Z,69.10
2023-03-04T04:35:47.890Z,71.53
2023-03-04T04:38:16.786Z,65.95
2023-03-04T04:40:46.002Z,64.65
2023-03-04T04:43:13.966Z,66.45
2023-03-04T04:45:42.320Z,62.10
2023-03-04T04:48:10.278Z,59.72
2023-03-04T04:50:38.143Z,62.92
2023-03-04T04:53:06.052Z,63.95
2023-03-04T04:55:35.284Z,68.15
2023-03-04T04:58:06.947Z,62.90
2023-03-04T05:00:34.874Z,64.03
2023-03-04T05:03:02.754Z,64.53
2023-03-04T05:05:30.637Z,58.22
2023-03-04T05:07:58.701Z,57.95
2023-03-04T05:10:26.631Z,63.53
2023-03-04T05:12:54.519Z,52.97
2023-03-04T05:15:23.764Z,55.75
2023-03-04T05:17:51.705Z,57.97
2023-03-04T05:20:19.728Z,56.15
2023-03-04T05:22:47.591Z,59.83
2023-03-04T05:25:15.570Z,60.80
2023-03-04T05:27:43.417Z,58.50
2023-03-04T05:30:12.594Z,53.30
2023-03-04T05:32:41.851Z,55.03
2023-03-04T05:35:10.589Z,58.10
2023-03-04T05:37:38.552Z,54.97
2023-03-04T05:40:07.573Z,56.78
2023-03-04T05:42:35.452Z,55.00
2023-03-04T05:45:03.345Z,54.80
2023-03-04T05:47:31.265Z,54.75
2023-03-04T05:50:00.462Z,49.42
2023-03-04T05:52:28.347Z,53.83
2023-03-04T05:54:56.238Z,53.30
2023-03-04T05:57:24.100Z,51.15
2023-03-04T05:59:52.050Z,49.13
2023-03-04T06:02:19.959Z,50.80
2023-03-04T06:04:47.869Z,52.45
2023-03-04T06:07:17.190Z,54.17
2023-03-04T06:09:45.183Z,52.80
2023-03-04T06:12:13.190Z,53.38
2023-03-04T06:14:41.049Z,49.72
2023-03-04T06:17:09.043Z,51.40
2023-03-04T06:19:37.946Z,49.63
2023-03-04T06:22:06.265Z,51.88
2023-03-04T06:24:35.694Z,55.45
2023-03-04T06:27:03.548Z,53.33
2023-03-04T06:29:31.404Z,55.42
2023-03-04T06:31:59.424Z,57.25
2023-03-04T06:34:28.199Z,52.75
2023-03-04T06:36:56.061Z,54.90
2023-03-04T06:39:23.937Z,54.42
2023-03-04T06:41:53.174Z,53.92
2023-03-04T06:44:21.140Z,54.45
2023-03-04T06:46:49.120Z,49.83
2023-03-04T06:49:17.306Z,53.75
2023-03-04T06:51:45.149Z,51.97
2023-03-04T06:54:13.034Z,51.17
2023-03-04T06:56:40.895Z,49.90
2023-03-04T06:59:10.148Z,49.38
2023-03-04T07:01:38.456Z,53.95
2023-03-04T07:04:06.542Z,50.33
2023-03-04T07:06:34.419Z,49.45
2023-03-04T07:09:02.432Z,53.80
2023-03-04T07:11:30.371Z,47.03
2023-03-04T07:13:58.285Z,47.42
2023-03-04T07:16:27.634Z,48.95
2023-03-04T07:18:55.536Z,47.38
2023-03-04T07:21:23.443Z,47.95
2023-03-04T07:23:51.460Z,49.05
2023-03-04T07:26:19.915Z,40.70
2023-03-04T07:28:47.874Z,45.53
2023-03-04T07:31:23.190Z,41.80
2023-03-04T07:33:53.065Z,44.22
2023-03-04T07:36:20.977Z,42.92
2023-03-04T07:38:50.254Z,39.55
2023-03-04T07:41:19.023Z,41.03
2023-03-04T07:43:46.954Z,39.65
2023-03-04T07:46:15.042Z,39.60
2023-03-04T07:48:42.980Z,36.42
2023-03-04T07:51:14.147Z,38.08
2023-03-04T07:53:43.547Z,36.35
2023-03-04T07:56:13.851Z,37.33
2023-03-04T07:58:41.953Z,35.55
2023-03-04T08:01:11.601Z,36.88
2023-03-04T08:03:40.083Z,36.55
2023-03-04T08:06:08.841Z,38.03
2023-03-04T08:08:38.494Z,37.83
2023-03-04T08:11:07.595Z,35.42
2023-03-04T08:13:36.163Z,38.42
2023-03-04T08:16:06.031Z,37.95
2023-03-04T08:18:33.978Z,41.95
2023-03-04T08:21:01.905Z,40.63
2023-03-04T08:23:29.811Z,38.20
2023-03-04T08:25:59.077Z,41.20
2023-03-04T08:28:26.980Z,43.13
2023-03-04T08:30:56.662Z,40.65
2023-03-04T08:33:24.544Z,39.35
2023-03-04T08:35:52.468Z,41.20
2023-03-04T08:38:20.361Z,45.28
2023-03-04T08:40:53.799Z,43.35
2023-03-04T08:45:51.158Z,43.22
2023-03-04T08:48:19.461Z,45.05
2023-03-04T08:50:47.574Z,42.97
2023-03-04T08:53:15.937Z,46.00
2023-03-04T08:55:44.361Z,42.65
2023-03-04T08:58:12.729Z,37.35
2023-03-04T09:00:44.162Z,44.50
2023-03-04T09:03:13.953Z,40.83
2023-03-04T09:05:42.108Z,42.50
2023-03-04T09:08:10.693Z,45.90
2023-03-04T09:10:38.686Z,44.15
2023-03-04T09:13:08.206Z,37.72
2023-03-04T09:15:36.507Z,44.85
2023-03-04T09:18:06.544Z,43.83
2023-03-04T09:20:34.467Z,46.13
2023-03-04T09:23:02.466Z,40.03
2023-03-04T09:25:30.342Z,42.67
2023-03-04T09:27:58.233Z,40.28
2023-03-04T09:30:28.022Z,42.22
2023-03-04T09:32:56.735Z,38.78
2023-03-04T09:35:26.305Z,38.60
2023-03-04T09:37:54.245Z,37.60
2023-03-04T09:40:25.354Z,40.15
2023-03-04T09:42:58.029Z,36.35
2023-03-04T09:45:32.082Z,35.90
2023-03-04T09:48:00.813Z,34.08
2023-03-04T09:50:34.564Z,34.42
2023-03-04T09:53:11.759Z,36.30
2023-03-04T09:55:41.511Z,33.95
2023-03-04T09:58:21.676Z,38.30
2023-03-04T10:00:57.090Z,34.00
2023-03-04T10:03:28.418Z,32.58
2023-03-04T10:06:01.690Z,33.42
2023-03-04T10:08:41.053Z,35.38
2023-03-04T10:11:14.972Z,31.65
2023-03-04T10:13:55.189Z,30.90
2023-03-04T10:16:27.000Z,34.03
2023-03-04T10:18:59.709Z,34.20
2023-03-04T10:21:34.266Z,35.72
2023-03-04T10:24:06.529Z,32.22
2023-03-04T10:26:34.954Z,35.33
2023-03-04T10:29:06.930Z,32.72
2023-03-04T10:31:38.988Z,36.75
2023-03-04T10:34:07.757Z,37.15
2023-03-04T10:36:48.747Z,36.38
2023-03-04T10:39:22.877Z,37.15
2023-03-04T10:41:57.974Z,33.35
2023-03-04T10:44:26.737Z,36.40
2023-03-04T10:46:56.865Z,35.20
2023-03-04T10:49:26.501Z,35.90
2023-03-04T10:52:02.848Z,36.97
2023-03-04T10:54:34.697Z,38.95
2023-03-04T10:57:05.320Z,34.50
2023-03-04T10:59:43.667Z,36.00
2023-03-04T11:02:21.843Z,34.63
2023-03-04T11:04:55.607Z,33.40
2023-03-04T11:07:26.654Z,35.08
2023-03-04T11:09:57.316Z,35.50
2023-03-04T11:12:34.933Z,34.22
2023-03-04T11:15:03.939Z,36.65
2023-03-04T11:17:44.094Z,36.20
2023-03-04T11:20:19.261Z,32.67
2023-03-04T11:22:48.641Z,36.65
2023-03-04T11:25:25.056Z,36.83
2023-03-04T11:27:56.856Z,34.38
2023-03-04T11:30:35.271Z,35.03
2023-03-04T11:33:14.430Z,35.03
2023-03-04T11:35:49.665Z,35.47
2023-03-04T11:38:21.344Z,33.17
2023-03-04T11:40:54.104Z,36.58
2023-03-04T11:43:28.389Z,36.90
2023-03-04T11:46:21.524Z,37.40
2023-03-04T11:48:58.008Z,37.22
2023-03-04T11:51:35.954Z,39.17
2023-03-04T11:54:18.527Z,40.28
2023-03-04T11:56:50.383Z,37.35
2023-03-04T11:59:46.742Z,39.85
2023-03-04T12:02:20.423Z,40.20
2023-03-04T12:05:02.675Z,44.08
2023-03-04T12:07:47.605Z,43.08
2023-03-04T12:10:24.480Z,39.10
2023-03-04T12:13:18.267Z,42.45
2023-03-04T12:15:54.518Z,42.58
2023-03-04T12:18:44.309Z,44.20
2023-03-04T12:21:23.928Z,38.05
2023-03-04T12:24:26.744Z,40.67
2023-03-04T12:27:01.531Z,47.88
2023-03-04T12:29:40.240Z,40.40
2023-03-04T12:32:18.697Z,42.80
2023-03-04T12:34:58.480Z,45.10
2023-03-04T12:37:42.674Z,45.55
2023-03-04T12:40:35.869Z,42.10
2023-03-04T12:43:14.347Z,43.67
2023-03-04T12:45:48.447Z,42.13
2023-03-04T12:48:27.743Z,43.25
2023-03-04T12:51:08.201Z,41.53
2023-03-04T12:53:41.217Z,43.25
2023-03-04T12:56:23.038Z,45.85
2023-03-04T12:58:53.138Z,38.70
2023-03-04T13:01:27.303Z,42.17
2023-03-04T13:04:02.840Z,40.30
2023-03-04T13:06:42.623Z,42.30
2023-03-04T13:09:20.453Z,43.72
2023-03-04T13:12:03.736Z,41.08
2023-03-04T13:14:36.175Z,37.83
2023-03-04T13:17:43.306Z,39.20
2023-03-04T13:20:24.122Z,41.28
2023-03-04T13:22:56.926Z,35.88
2023-03-04T13:25:34.892Z,37.88
2023-03-04T13:28:22.293Z,39.85
2023-03-04T13:31:24.360Z,38.10
2023-03-04T13:34:00.540Z,36.40
2023-03-04T13:36:59.233Z,33.67
2023-03-04T13:39:37.061Z,32.47
2023-03-04T13:42:36.069Z,34.75
2023-03-04T13:45:04.692Z,32.30
2023-03-04T13:47:48.291Z,32.60
2023-03-04T13:52:51.806Z,35.28
2023-03-04T13:55:38.616Z,39.78
2023-03-04T13:58:26.292Z,33.92
2023-03-04T14:00:56.540Z,41.80
2023-03-04T14:03:28.733Z,33.28
2023-03-04T14:06:19.844Z,34.00
2023-03-04T14:08:48.870Z,34.67
2023-03-04T14:11:22.588Z,34.65
2023-03-04T14:13:50.606Z,34.45
2023-03-04T14:16:22.482Z,36.70
2023-03-04T14:19:03.522Z,35.03
2023-03-04T14:21:31.954Z,34.95
2023-03-04T14:24:06.147Z,35.58
2023-03-04T14:26:34.774Z,34.58
2023-03-04T14:29:03.062Z,35.35
2023-03-04T14:31:35.491Z,36.95
2023-03-04T14:34:05.438Z,36.20
2023-03-04T14:36:35.425Z,34.40
2023-03-04T14:39:06.809Z,34.50
2023-03-04T14:41:38.045Z,34.10
2023-03-04T14:44:12.512Z,28.17
2023-03-04T14:46:47.508Z,34.50
2023-03-04T14:49:20.785Z,37.83
2023-03-04T14:51:51.091Z,32.28
2023-03-04T14:54:37.279Z,30.85
2023-03-04T14:57:24.056Z,33.30
2023-03-04T14:59:52.972Z,31.13
2023-03-04T15:02:36.553Z,29.85
2023-03-04T15:07:50.788Z,29.20
2023-03-04T15:10:23.901Z,32.13
2023-03-04T15:12:53.554Z,29.27
2023-03-04T15:15:43.354Z,29.77
2023-03-04T15:18:22.032Z,31.02
2023-03-04T15:21:03.010Z,26.48
2023-03-04T15:23:32.339Z,31.63
2023-03-04T15:26:02.278Z,29.13
2023-03-04T15:28:33.655Z,24.70
2023-03-04T15:31:01.642Z,26.88
2023-03-04T15:33:29.642Z,28.02
2023-03-04T15:36:00.980Z,26.52
2023-03-04T15:38:30.383Z,26.95
2023-03-04T15:40:59.790Z,27.23
2023-03-04T15:43:27.818Z,26.25
2023-03-04T15:45:55.707Z,28.90
2023-03-04T15:48:23.628Z,28.23
2023-03-04T15:50:56.275Z,28.88
2023-03-04T15:53:32.623Z,19.83
2023-03-04T15:56:01.688Z,26.35
2023-03-04T15:58:32.094Z,25.05
2023-03-04T16:01:01.071Z,27.58
2023-03-04T16:03:28.951Z,26.70
2023-03-04T16:05:58.067Z,28.02
2023-03-04T16:08:27.368Z,25.92
2023-03-04T16:10:55.247Z,24.80
2023-03-04T16:13:24.917Z,26.83
2023-03-04T16:15:53.205Z,27.55
2023-03-04T16:18:21.494Z,36.28
2023-03-04T16:20:50.736Z,31.27
2023-03-04T16:23:21.537Z,27.17
2023-03-04T16:25:53.122Z,28.75
2023-03-04T16:28:21.019Z,32.40
2023-03-04T16:30:49.086Z,30.80
2023-03-04T16:33:17.150Z,29.15
2023-03-04T16:35:46.507Z,29.25
2023-03-04T16:38:25.729Z,29.23
2023-03-04T16:40:56.530Z,27.30
2023-03-04T16:43:25.384Z,26.42
2023-03-04T16:45:53.454Z,28.27
2023-03-04T16:48:21.437Z,29.85
2023-03-04T16:50:49.472Z,29.10
2023-03-04T16:53:25.854Z,31.95
2023-03-04T16:55:55.764Z,25.95
2023-03-04T16:58:23.622Z,31.48
2023-03-04T17:00:51.567Z,32.45
2023-03-04T17:03:19.451Z,28.92
2023-03-04T17:05:47.721Z,29.52
2023-03-04T17:08:15.695Z,30.20
2023-03-04T17:10:43.620Z,30.55
2023-03-04T17:13:12.852Z,31.60
2023-03-04T17:15:42.801Z,27.35
2023-03-04T17:18:10.844Z,31.58
2023-03-04T17:20:38.871Z,34.05
2023-03-04T17:23:06.864Z,33.47
2023-03-04T17:25:34.953Z,28.23
2023-03-04T17:28:02.859Z,33.35
2023-03-04T17:30:32.746Z,32.15
2023-03-04T17:33:00.641Z,38.05
2023-03-04T17:35:28.512Z,30.70
2023-03-04T17:37:56.410Z,32.38
2023-03-04T17:40:24.360Z,31.65
2023-03-04T17:42:52.248Z,29.80
2023-03-04T17:45:20.227Z,31.80
2023-03-04T17:47:49.476Z,30.35
2023-03-04T17:50:17.818Z,32.60
2023-03-04T17:52:45.672Z,34.08
2023-03-04T17:55:13.579Z,31.88
2023-03-04T17:57:41.444Z,32.30
2023-03-04T18:00:10.746Z,32.90
2023-03-04T18:02:38.591Z,39.95
2023-03-04T18:05:08.763Z,34.33
2023-03-04T18:07:36.617Z,37.90
2023-03-04T18:10:05.214Z,40.78
2023-03-04T18:12:33.300Z,35.75
2023-03-04T18:15:01.182Z,36.92
2023-03-04T18:17:29.081Z,35.25
2023-03-04T18:19:57.514Z,39.92
2023-03-04T18:22:26.774Z,39.17
2023-03-04T18:24:54.631Z,36.88
2023-03-04T18:27:22.540Z,37.53
2023-03-04T18:29:50.416Z,38.78
2023-03-04T18:32:18.450Z,38.97
2023-03-04T18:34:46.334Z,39.33
2023-03-04T18:37:14.336Z,41.38
2023-03-04T18:39:43.552Z,35.80
2023-03-04T18:42:11.478Z,36.70
2023-03-04T18:44:39.499Z,37.55
2023-03-04T18:47:08.028Z,36.45
2023-03-04T18:49:35.963Z,33.88
2023-03-04T18:52:03.839Z,36.90
2023-03-04T18:54:31.716Z,37.72
2023-03-04T18:57:04.746Z,37.00
2023-03-04T18:59:37.078Z,33.55
2023-03-04T19:02:11.300Z,34.80
2023-03-04T19:04:39.288Z,36.75
2023-03-04T19:07:07.161Z,35.17
2023-03-04T19:09:35.089Z,36.53
2023-03-04T19:12:06.467Z,36.92
2023-03-04T19:14:34.488Z,32.42
2023-03-04T19:17:02.353Z,36.08
2023-03-04T19:19:30.259Z,35.53
2023-03-04T19:22:10.537Z,35.10
2023-03-04T19:24:39.355Z,35.50
2023-03-04T19:27:08.560Z,33.90
2023-03-04T19:29:36.552Z,36.00
2023-03-04T19:32:04.575Z,35.50
2023-03-04T19:34:32.512Z,35.05
2023-03-04T19:37:00.391Z,36.85
2023-03-04T19:39:28.298Z,34.90
2023-03-04T19:41:56.147Z,35.20
2023-03-04T19:44:25.392Z,37.10
2023-03-04T19:46:53.330Z,40.42
2023-03-04T19:49:21.201Z,40.88
2023-03-04T19:51:49.037Z,36.42
2023-03-04T19:54:17.005Z,37.22
2023-03-04T19:56:44.896Z,35.88
2023-03-04T19:59:12.742Z,39.40
2023-03-04T20:01:44.672Z,36.42
2023-03-04T20:04:17.393Z,33.30
2023-03-04T20:06:46.743Z,33.67
2023-03-04T20:09:17.191Z,39.15
2023-03-04T20:11:57.224Z,37.45
2023-03-04T20:14:25.960Z,34.13
2023-03-04T20:16:55.445Z,39.28
2023-03-04T20:19:23.318Z,37.75
2023-03-04T20:21:51.209Z,36.88
2023-03-04T20:24:19.931Z,38.33
2023-03-04T20:26:47.811Z,35.08
2023-03-04T20:29:15.924Z,36.42
2023-03-04T20:31:44.640Z,34.03
2023-03-04T20:34:14.751Z,34.40
2023-03-04T20:36:42.677Z,35.40
2023-03-04T20:39:26.959Z,37.17
2023-03-04T20:42:08.812Z,34.88
2023-03-04T20:44:39.601Z,36.97
2023-03-04T20:47:07.578Z,41.85
2023-03-04T20:49:36.818Z,40.20
2023-03-04T20:52:06.386Z,36.97
2023-03-04T20:54:35.018Z,34.83
2023-03-04T20:57:05.411Z,35.00
2023-03-04T20:59:33.680Z,39.28
2023-03-04T21:02:01.720Z,34.15
2023-03-04T21:04:31.884Z,36.80
2023-03-04T21:07:02.287Z,37.15
2023-03-04T21:09:30.722Z,37.53
2023-03-04T21:12:00.712Z,35.20
2023-03-04T21:14:31.407Z,37.53
2023-03-04T21:17:01.933Z,40.60
2023-03-04T21:19:31.791Z,38.97
2023-03-04T21:22:01.888Z,40.80
2023-03-04T21:24:32.155Z,37.10
2023-03-04T21:27:01.467Z,37.67
2023-03-04T21:29:29.673Z,39.63
2023-03-04T21:32:12.966Z,39.17
2023-03-04T21:34:43.553Z,37.95
2023-03-04T21:37:12.821Z,36.90
2023-03-04T21:39:40.923Z,36.17
2023-03-04T21:42:08.862Z,38.55
2023-03-04T21:44:48.561Z,41.97
2023-03-04T21:47:17.853Z,39.00
2023-03-04T21:49:45.770Z,37.03
2023-03-04T21:52:15.015Z,41.17
2023-03-04T21:54:42.946Z,38.22
2023-03-04T21:57:10.884Z,38.92
2023-03-04T21:59:39.589Z,39.17
2023-03-04T22:02:08.265Z,40.05
2023-03-04T22:04:36.220Z,38.78
2023-03-04T22:07:04.135Z,37.22
2023-03-04T22:09:33.364Z,39.40
2023-03-04T22:12:01.261Z,39.25
2023-03-04T22:14:29.565Z,39.88
2023-03-04T22:16:57.546Z,38.65
2023-03-04T22:19:26.712Z,38.15
2023-03-04T22:21:55.241Z,43.28
2023-03-04T22:24:23.426Z,44.72
2023-03-04T22:26:52.790Z,41.28
2023-03-04T22:29:20.679Z,42.67
2023-03-04T22:31:48.570Z,44.13
2023-03-04T22:34:17.142Z,42.35
2023-03-04T22:36:47.527Z,43.33
2023-03-04T22:39:19.171Z,42.92
2023-03-04T22:41:47.526Z,42.58
2023-03-04T22:44:16.878Z,44.17
2023-03-04T22:46:44.885Z,45.60
2023-03-04T22:49:15.078Z,45.08
2023-03-04T22:51:44.662Z,43.83
2023-03-04T22:54:13.680Z,43.88
2023-03-04T22:56:41.587Z,44.35
2023-03-04T22:59:11.566Z,41.50
2023-03-04T23:01:40.805Z,42.40
2023-03-04T23:04:08.676Z,42.67
2023-03-04T23:06:37.627Z,43.35
2023-03-04T23:09:06.051Z,42.17
2023-03-04T23:11:36.919Z,44.75
2023-03-04T23:14:07.155Z,40.20
2023-03-04T23:16:39.059Z,46.22
2023-03-04T23:19:09.414Z,42.08
2023-03-04T23:21:38.693Z,43.15
2023-03-04T23:24:08.409Z,43.42
2023-03-04T23:26:38.810Z,43.65
2023-03-04T23:29:08.688Z,45.95
2023-03-04T23:31:37.762Z,41.55
2023-03-04T23:34:07.219Z,43.65
2023-03-04T23:36:37.340Z,42.72
2023-03-04T23:39:07.242Z,45.28
2023-03-04T23:41:36.020Z,44.78
2023-03-04T23:44:04.744Z,41.15
2023-03-04T23:46:33.073Z,42.70
2023-03-04T23:49:01.291Z,44.22
2023-03-04T23:51:30.459Z,42.40
2023-03-04T23:54:00.538Z,38.92
2023-03-04T23:56:30.006Z,44.53
2023-03-04T23:58:59.030Z,43.97
